Terminal Aerodrome Forecast
Issued by NWS Twin Cities, MN

Home | Current Version | Previous Version | Text Only | Print | Product List | Glossary Off
Versions: 1 2 3 4 5 6 7 8 9 10 11 12 13 14 15 16 17 18 19 20 21 22 23 24 25 26 27 28

259
FTUS43 KMPX 272338
TAFMSP
TAF
KMSP 272338Z 2800/2906 23005KT P6SM SCT120 SCT250
     FM281400 28011KT P6SM SCT040
     FM281700 29016G25KT P6SM BKN050
     FM290100 28010KT P6SM BKN070=

USA.gov is the U.S. government's official web portal to all federal, state and local government web resources and services.